createdAt,value
2023-03-08T00:01:27.435Z,100040.59
2023-03-08T00:04:29.458Z,100037.25
2023-03-08T00:07:31.942Z,100027.44
2023-03-08T00:10:33.962Z,100018.94
2023-03-08T00:13:36.088Z,100015.56
2023-03-08T00:16:38.215Z,100019.97
2023-03-08T00:19:40.501Z,100014.75
2023-03-08T00:22:43.354Z,100023.72
2023-03-08T00:25:45.372Z,100013.91
2023-03-08T00:28:47.602Z,100013.69
2023-03-08T00:31:49.716Z,100010.38
2023-03-08T00:34:51.958Z,100005.78
2023-03-08T00:37:53.921Z,100004.34
2023-03-08T00:40:57.802Z,100009.75
2023-03-08T00:43:59.868Z,99992.03
2023-03-08T00:47:03.354Z,99997.84
2023-03-08T00:50:06.146Z,100007.63
2023-03-08T00:53:08.541Z,100003.50
2023-03-08T00:56:11.535Z,99993.28
2023-03-08T00:59:13.493Z,99997.22
2023-03-08T01:02:15.525Z,99999.34
2023-03-08T01:05:17.779Z,99993.28
2023-03-08T01:08:21.452Z,99964.97
2023-03-08T01:11:27.090Z,99979.75
2023-03-08T01:14:30.530Z,99982.47
2023-03-08T01:17:33.038Z,99981.84
2023-03-08T01:20:35.591Z,99978.28
2023-03-08T01:23:38.344Z,99974.53
2023-03-08T01:26:41.411Z,99982.25
2023-03-08T01:29:44.274Z,99972.25
2023-03-08T01:32:46.510Z,99969.53
2023-03-08T01:35:48.636Z,99960.59
2023-03-08T01:38:51.355Z,99970.56
2023-03-08T01:41:53.711Z,99961.41
2023-03-08T01:44:59.259Z,99946.44
2023-03-08T01:48:03.791Z,99946.88
2023-03-08T01:51:29.151Z,99949.78
2023-03-08T01:54:39.527Z,99959.56
2023-03-08T01:57:49.776Z,99955.63
2023-03-08T02:00:51.800Z,99959.97
2023-03-08T02:03:54.033Z,99956.25
2023-03-08T02:06:56.647Z,99949.78
2023-03-08T02:10:00.289Z,99953.97
2023-03-08T02:13:04.753Z,99950.44
2023-03-08T02:16:09.998Z,99949.81
2023-03-08T02:19:26.684Z,99952.28
2023-03-08T02:22:28.901Z,99957.69
2023-03-08T02:25:31.119Z,99952.91
2023-03-08T02:28:33.622Z,99947.69
2023-03-08T02:31:35.533Z,99943.72
2023-03-08T02:34:39.527Z,99945.59
2023-03-08T02:37:41.594Z,99949.13
2023-03-08T02:40:43.612Z,99939.06
2023-03-08T02:43:45.569Z,99944.06
2023-03-08T02:46:47.649Z,99942.41
2023-03-08T02:49:49.883Z,99949.25
2023-03-08T02:52:52.024Z,99940.09
2023-03-08T02:55:54.083Z,99955.09
2023-03-08T02:58:56.125Z,99947.41
2023-03-08T03:01:59.770Z,99940.56
2023-03-08T03:05:06.179Z,99946.03
2023-03-08T03:08:09.104Z,99949.16
2023-03-08T03:11:22.875Z,99947.47
2023-03-08T03:14:28.531Z,99932.06
2023-03-08T03:17:31.907Z,99933.94
2023-03-08T03:20:34.670Z,99936.88
2023-03-08T03:23:36.951Z,99945.19
2023-03-08T03:26:39.732Z,99944.72
2023-03-08T03:29:41.954Z,99930.97
2023-03-08T03:32:48.692Z,99926.38
2023-03-08T03:35:55.623Z,99941.19
2023-03-08T03:38:58.731Z,99918.28
2023-03-08T03:42:01.459Z,99932.03
2023-03-08T03:45:04.614Z,99934.09
2023-03-08T03:48:07.016Z,99940.84
2023-03-08T03:51:18.696Z,99936.66
2023-03-08T03:54:25.079Z,99945.63
2023-03-08T03:57:28.301Z,99955.41
2023-03-08T04:00:30.703Z,99971.84
2023-03-08T04:03:56.289Z,99979.75
2023-03-08T04:06:59.293Z,99965.81
2023-03-08T04:10:06.632Z,99976.00
2023-03-08T04:13:13.443Z,99954.97
2023-03-08T04:16:22.996Z,99945.75
2023-03-08T04:19:25.355Z,99939.50
2023-03-08T04:22:31.023Z,99952.00
2023-03-08T04:25:41.465Z,99959.13
2023-03-08T04:28:45.953Z,99948.47
2023-03-08T04:31:48.333Z,99957.03
2023-03-08T04:34:53.696Z,99955.53
2023-03-08T04:37:58.795Z,99960.19
2023-03-08T04:41:10.414Z,99959.16
2023-03-08T04:44:41.822Z,99966.63
2023-03-08T04:47:45.318Z,99966.63
2023-03-08T04:51:00.425Z,99957.47
2023-03-08T04:54:05.166Z,99960.59
2023-03-08T04:57:09.671Z,99966.25
2023-03-08T05:00:13.929Z,99977.28
2023-03-08T05:03:17.999Z,99964.56
2023-03-08T05:06:22.430Z,99959.09
2023-03-08T05:09:25.091Z,99947.81
2023-03-08T05:12:31.157Z,99937.13
2023-03-08T05:15:35.555Z,99946.88
2023-03-08T05:18:38.211Z,99955.03
2023-03-08T05:21:41.745Z,99952.75
2023-03-08T05:24:46.465Z,99954.31
2023-03-08T05:27:49.367Z,99961.31
2023-03-08T05:31:33.756Z,99956.59
2023-03-08T05:34:39.491Z,99947.91
2023-03-08T05:37:44.673Z,99959.25
2023-03-08T05:40:47.627Z,99972.66
2023-03-08T05:43:50.776Z,99968.47
2023-03-08T05:46:53.847Z,99973.44
2023-03-08T05:49:57.307Z,99968.75
2023-03-08T05:52:59.546Z,99955.41
2023-03-08T05:56:16.595Z,99947.09
2023-03-08T05:59:26.787Z,99952.06
2023-03-08T06:02:32.658Z,99953.72
2023-03-08T06:05:35.369Z,99949.00
2023-03-08T06:08:38.045Z,99952.78
2023-03-08T06:11:41.768Z,99948.41
2023-03-08T06:14:44.865Z,99959.00
2023-03-08T06:17:48.810Z,99953.22
2023-03-08T06:21:02.322Z,99961.22
2023-03-08T06:24:07.039Z,99964.59
2023-03-08T06:27:09.327Z,99962.09
2023-03-08T06:30:14.375Z,99966.34
2023-03-08T06:33:20.949Z,99970.94
2023-03-08T06:36:23.627Z,99954.91
2023-03-08T06:39:27.109Z,99966.53
2023-03-08T06:42:40.773Z,99966.09
2023-03-08T06:45:43.769Z,99961.41
2023-03-08T06:48:48.685Z,99967.28
2023-03-08T06:51:51.780Z,99966.25
2023-03-08T06:54:54.016Z,99964.59
2023-03-08T06:57:56.111Z,99966.22
2023-03-08T07:01:00.198Z,99958.50
2023-03-08T07:04:03.366Z,99970.84
2023-03-08T07:07:07.766Z,99971.72
2023-03-08T07:10:11.421Z,99974.56
2023-03-08T07:13:13.448Z,99981.81
2023-03-08T07:16:15.525Z,99979.53
2023-03-08T07:19:17.580Z,99992.13
2023-03-08T07:22:19.648Z,100015.50
2023-03-08T07:25:22.328Z,100027.69
2023-03-08T07:28:24.631Z,100039.97
2023-03-08T07:31:29.076Z,100033.28
2023-03-08T07:34:31.046Z,100039.72
2023-03-08T07:37:33.562Z,100025.06
2023-03-08T07:40:36.647Z,100033.13
2023-03-08T07:43:38.831Z,100028.91
2023-03-08T07:46:48.986Z,100042.72
2023-03-08T07:49:51.196Z,100045.50
2023-03-08T07:52:53.226Z,100032.09
2023-03-08T07:55:57.126Z,100028.03
2023-03-08T07:58:59.387Z,100043.06
2023-03-08T08:02:01.393Z,100043.50
2023-03-08T08:05:04.852Z,100045.19
2023-03-08T08:08:06.852Z,100045.44
2023-03-08T08:11:17.089Z,100032.75
2023-03-08T08:14:19.187Z,100041.53
2023-03-08T08:17:22.258Z,100039.84
2023-03-08T08:20:25.657Z,100039.25
2023-03-08T08:23:28.473Z,100034.88
2023-03-08T08:26:30.514Z,100032.81
2023-03-08T08:29:33.062Z,100032.38
2023-03-08T08:32:35.673Z,100028.44
2023-03-08T08:35:43.307Z,100013.84
2023-03-08T08:38:46.976Z,100027.97
2023-03-08T08:41:50.275Z,100017.53
2023-03-08T08:44:56.122Z,100019.81
2023-03-08T08:47:58.102Z,100017.69
2023-03-08T08:51:01.003Z,100005.56
2023-03-08T08:54:03.484Z,100013.03
2023-03-08T08:57:06.888Z,100017.84
2023-03-08T09:00:10.221Z,100016.34
2023-03-08T09:03:14.139Z,100014.84
2023-03-08T09:06:19.896Z,100013.22
2023-03-08T09:09:21.830Z,100009.69
2023-03-08T09:12:23.792Z,100019.25
2023-03-08T09:15:26.378Z,100013.63
2023-03-08T09:18:28.838Z,100011.69
2023-03-08T09:21:32.469Z,100018.13
2023-03-08T09:24:34.646Z,100015.81
2023-03-08T09:27:37.909Z,100013.09
2023-03-08T09:30:40.031Z,100015.56
2023-03-08T09:33:43.923Z,100009.88
2023-03-08T09:36:46.042Z,99994.84
2023-03-08T09:39:51.375Z,100000.63
2023-03-08T09:42:59.291Z,99990.16
2023-03-08T09:46:01.444Z,99965.97
2023-03-08T09:49:05.682Z,99977.19
2023-03-08T09:52:11.340Z,99979.41
2023-03-08T09:55:43.430Z,99958.84
2023-03-08T09:58:58.282Z,99973.78
2023-03-08T10:02:24.708Z,99982.13
2023-03-08T10:05:44.678Z,99981.13
2023-03-08T10:08:49.935Z,99982.66
2023-03-08T10:12:02.984Z,99973.81
2023-03-08T10:15:15.595Z,99969.66
2023-03-08T10:18:20.510Z,99963.97
2023-03-08T10:21:26.077Z,99954.19
2023-03-08T10:24:49.450Z,99955.25
2023-03-08T10:27:54.613Z,99960.59
2023-03-08T10:31:04.523Z,99955.78
2023-03-08T10:34:12.793Z,99952.34
2023-03-08T10:37:15.260Z,99954.84
2023-03-08T10:40:22.002Z,99950.09
2023-03-08T10:43:33.257Z,99954.44
2023-03-08T10:46:47.374Z,99946.56
2023-03-08T10:49:49.510Z,99946.56
2023-03-08T10:52:52.269Z,99935.41
2023-03-08T10:55:54.534Z,99920.88
2023-03-08T10:58:58.197Z,99946.69
2023-03-08T11:02:16.297Z,99933.91
2023-03-08T11:05:21.806Z,99936.81
2023-03-08T11:08:54.540Z,99926.16
2023-03-08T11:11:58.109Z,99931.06
2023-03-08T11:15:00.278Z,99922.69
2023-03-08T11:18:39.893Z,99930.38
2023-03-08T11:21:44.731Z,99926.13
2023-03-08T11:24:46.753Z,99932.91
2023-03-08T11:28:10.382Z,99936.84
2023-03-08T11:31:27.544Z,99920.03
2023-03-08T11:35:01.023Z,99923.09
2023-03-08T11:38:20.207Z,99912.69
2023-03-08T11:41:31.402Z,99906.03
2023-03-08T11:44:49.420Z,99911.50
2023-03-08T11:48:00.282Z,99903.69
2023-03-08T11:51:09.791Z,99906.19
2023-03-08T11:54:15.880Z,99902.84
2023-03-08T11:57:19.899Z,99907.34
2023-03-08T12:00:26.567Z,99892.53
2023-03-08T12:03:37.613Z,99891.00
2023-03-08T12:06:42.343Z,99888.16
2023-03-08T12:10:01.567Z,99895.66
2023-03-08T12:13:03.420Z,99891.84
2023-03-08T12:16:25.544Z,99878.69
2023-03-08T12:19:36.916Z,99879.78
2023-03-08T12:22:58.142Z,99883.53
2023-03-08T12:26:09.320Z,99881.78
2023-03-08T12:29:46.419Z,99883.09
2023-03-08T12:32:49.604Z,99882.72
2023-03-08T12:36:05.321Z,99884.13
2023-03-08T12:39:25.436Z,99871.00
2023-03-08T12:42:40.065Z,99883.56
2023-03-08T12:45:45.292Z,99882.25
2023-03-08T12:48:50.854Z,99885.31
2023-03-08T12:52:32.225Z,99890.53
2023-03-08T12:55:34.456Z,99887.56
2023-03-08T12:58:57.219Z,99887.69
2023-03-08T13:02:00.887Z,99900.50
2023-03-08T13:05:31.158Z,99890.88
2023-03-08T13:08:44.572Z,99899.19
2023-03-08T13:11:52.950Z,99887.81
2023-03-08T13:15:02.460Z,99890.78
2023-03-08T13:18:08.980Z,99888.50
2023-03-08T13:21:31.303Z,99893.38
2023-03-08T13:24:39.233Z,99878.59
2023-03-08T13:28:13.568Z,99890.06
2023-03-08T13:31:30.415Z,99879.88
2023-03-08T13:34:35.688Z,99876.31
2023-03-08T13:37:38.505Z,99872.16
2023-03-08T13:40:51.497Z,99880.00
2023-03-08T13:44:01.441Z,99882.13
2023-03-08T13:47:30.898Z,99877.88
2023-03-08T13:50:35.320Z,99885.81
2023-03-08T13:53:38.360Z,99886.16
2023-03-08T13:56:40.786Z,99883.19
2023-03-08T13:59:49.663Z,99890.16
2023-03-08T14:02:53.110Z,99883.06
2023-03-08T14:05:55.295Z,99885.56
2023-03-08T14:09:03.810Z,99886.53
2023-03-08T14:12:06.808Z,99893.97
2023-03-08T14:15:18.849Z,99891.47
2023-03-08T14:18:30.846Z,99890.28
2023-03-08T14:21:32.965Z,99876.56
2023-03-08T14:24:36.463Z,99887.19
2023-03-08T14:27:41.741Z,99884.25
2023-03-08T14:30:49.099Z,99888.16
2023-03-08T14:34:02.227Z,99882.94
2023-03-08T14:45:50.057Z,99884.81
2023-03-08T14:49:00.495Z,99893.56
2023-03-08T14:52:02.998Z,99888.13
2023-03-08T14:55:26.869Z,99884.22
2023-03-08T14:58:31.318Z,99891.16
2023-03-08T15:01:38.057Z,99895.00
2023-03-08T15:04:43.821Z,99888.63
2023-03-08T15:07:47.574Z,99889.91
2023-03-08T15:10:50.348Z,99891.06
2023-03-08T15:13:52.489Z,99891.25
2023-03-08T15:16:55.462Z,99907.44
2023-03-08T15:19:57.467Z,99898.66
2023-03-08T15:23:02.702Z,99907.56
2023-03-08T15:26:06.614Z,99909.91
2023-03-08T15:29:20.380Z,99908.63
2023-03-08T15:32:22.403Z,99912.94
2023-03-08T15:35:25.333Z,99915.78
2023-03-08T15:38:27.396Z,99912.38
2023-03-08T15:41:29.582Z,99910.19
2023-03-08T15:44:32.096Z,99905.41
2023-03-08T15:47:34.066Z,99912.53
2023-03-08T15:50:36.615Z,99917.91
2023-03-08T15:53:38.621Z,99922.09
2023-03-08T15:56:40.791Z,99913.78
2023-03-08T15:59:43.487Z,99925.97
2023-03-08T16:02:45.741Z,99923.75
2023-03-08T16:05:47.791Z,99926.38
2023-03-08T16:08:50.301Z,99928.66
2023-03-08T16:11:52.292Z,99938.63
2023-03-08T16:14:55.184Z,99945.78
2023-03-08T16:17:57.242Z,99948.25
2023-03-08T16:20:59.789Z,99950.34
2023-03-08T16:24:02.699Z,99948.81
2023-03-08T16:27:05.562Z,99955.94
2023-03-08T16:30:08.331Z,99958.41
2023-03-08T16:33:10.536Z,99974.56
2023-03-08T16:36:12.963Z,99970.75
2023-03-08T16:39:15.019Z,99977.84
2023-03-08T16:42:18.898Z,99986.03
2023-03-08T16:45:21.031Z,99977.28
2023-03-08T16:48:23.478Z,99984.38
2023-03-08T16:51:27.787Z,99986.88
2023-03-08T16:54:31.083Z,99969.50
2023-03-08T16:57:33.240Z,99989.91
2023-03-08T17:00:35.215Z,100007.41
2023-03-08T17:03:38.534Z,100010.28
2023-03-08T17:06:44.557Z,100000.38
2023-03-08T17:09:47.037Z,99993.16
2023-03-08T17:12:49.080Z,99996.97
2023-03-08T17:15:51.242Z,100023.91
2023-03-08T17:18:54.282Z,100032.28
2023-03-08T17:21:56.450Z,100029.72
2023-03-08T17:24:58.532Z,100046.47
2023-03-08T17:28:00.607Z,100038.94
2023-03-08T17:31:06.890Z,100048.97
2023-03-08T17:34:09.285Z,100055.31
2023-03-08T17:37:11.526Z,100056.81
2023-03-08T17:40:14.200Z,100049.41
2023-03-08T17:43:16.297Z,100043.97
2023-03-08T17:46:22.118Z,100060.22
2023-03-08T17:49:25.231Z,100068.16
2023-03-08T17:52:27.346Z,100057.50
2023-03-08T17:55:29.379Z,100074.66
2023-03-08T17:58:31.385Z,100080.69
2023-03-08T18:01:33.797Z,100072.84
2023-03-08T18:04:36.093Z,100073.44
2023-03-08T18:07:41.527Z,100079.13
2023-03-08T18:10:44.022Z,100073.69
2023-03-08T18:13:46.767Z,100076.03
2023-03-08T18:16:48.738Z,100078.19
2023-03-08T18:19:50.901Z,100073.88
2023-03-08T18:22:53.166Z,100079.31
2023-03-08T18:25:55.241Z,100082.09
2023-03-08T18:28:57.202Z,100072.56
2023-03-08T18:31:59.500Z,100073.47
2023-03-08T18:35:01.622Z,100066.88
2023-03-08T18:38:04.420Z,100066.25
2023-03-08T18:41:17.656Z,100081.28
2023-03-08T18:44:19.779Z,100083.47
2023-03-08T18:47:21.926Z,100083.13
2023-03-08T18:50:25.280Z,100082.69
2023-03-08T18:53:27.424Z,100083.16
2023-03-08T18:56:30.119Z,100079.00
2023-03-08T18:59:33.454Z,100060.25
2023-03-08T19:02:35.777Z,100072.03
2023-03-08T19:05:38.063Z,100075.00
2023-03-08T19:08:40.524Z,100072.72
2023-03-08T19:11:43.262Z,100072.16
2023-03-08T19:14:48.331Z,100069.44
2023-03-08T19:17:53.965Z,100066.94
2023-03-08T19:20:56.101Z,100071.78
2023-03-08T19:23:58.504Z,100067.59
2023-03-08T19:27:02.227Z,100065.16
2023-03-08T19:30:04.540Z,100055.16
2023-03-08T19:33:06.582Z,100065.16
2023-03-08T19:36:09.589Z,100067.88
2023-03-08T19:39:20.002Z,100072.47
2023-03-08T19:42:22.425Z,100071.03
2023-03-08T19:45:25.420Z,100057.06
2023-03-08T19:48:29.457Z,100062.13
2023-03-08T19:51:32.237Z,100049.38
2023-03-08T19:54:34.940Z,100041.06
2023-03-08T19:57:37.617Z,100055.66
2023-03-08T20:00:43.152Z,100061.16
2023-03-08T20:03:46.331Z,100069.69
2023-03-08T20:06:50.235Z,100068.22
2023-03-08T20:09:58.841Z,100049.50
2023-03-08T20:13:04.445Z,100074.28
2023-03-08T20:16:07.113Z,100088.78
2023-03-08T20:19:09.009Z,100064.00
2023-03-08T20:22:11.046Z,100065.59
2023-03-08T20:25:13.058Z,100036.56
2023-03-08T20:28:15.018Z,100052.78
2023-03-08T20:31:17.635Z,100025.72
2023-03-08T20:34:19.624Z,100035.94
2023-03-08T20:37:22.154Z,100040.09
2023-03-08T20:40:24.198Z,100032.97
2023-03-08T20:43:26.341Z,100031.31
2023-03-08T20:46:33.458Z,100045.38
2023-03-08T20:49:35.824Z,100054.72
2023-03-08T20:52:37.910Z,100064.13
2023-03-08T20:55:41.099Z,100071.41
2023-03-08T20:58:43.319Z,100076.59
2023-03-08T21:01:45.841Z,100064.94
2023-03-08T21:04:47.840Z,100065.34
2023-03-08T21:07:52.590Z,100064.09
2023-03-08T21:10:58.709Z,100054.94
2023-03-08T21:14:00.713Z,100056.16
2023-03-08T21:17:02.681Z,100049.69
2023-03-08T21:20:05.840Z,100034.94
2023-03-08T21:23:07.782Z,100045.97
2023-03-08T21:26:09.851Z,100045.56
2023-03-08T21:29:15.524Z,100036.59
2023-03-08T21:32:18.031Z,100033.47
2023-03-08T21:35:20.140Z,100033.47
2023-03-08T21:38:24.417Z,100037.84
2023-03-08T21:41:30.292Z,100018.25
2023-03-08T21:44:32.444Z,100036.38
2023-03-08T21:47:35.834Z,100004.72
2023-03-08T21:50:39.135Z,100025.72
2023-03-08T21:53:42.097Z,100009.66
2023-03-08T21:56:44.375Z,100013.63
2023-03-08T21:59:46.463Z,100020.06
2023-03-08T22:02:54.543Z,100007.22
2023-03-08T22:05:58.334Z,100021.31
2023-03-08T22:09:00.405Z,100014.50
2023-03-08T22:12:02.468Z,100016.78
2023-03-08T22:15:06.107Z,100013.88
2023-03-08T22:18:08.126Z,99996.78
2023-03-08T22:21:10.665Z,100009.47
2023-03-08T22:24:12.585Z,100015.72
2023-03-08T22:27:14.924Z,100008.88
2023-03-08T22:30:17.135Z,99987.63
2023-03-08T22:33:19.180Z,100005.63
2023-03-08T22:36:22.385Z,100003.91
2023-03-08T22:39:24.405Z,99994.16
2023-03-08T22:42:26.561Z,100008.72
2023-03-08T22:45:29.818Z,100001.63
2023-03-08T22:48:31.753Z,99998.69
2023-03-08T22:51:36.491Z,99989.16
2023-03-08T22:54:38.666Z,99984.81
2023-03-08T22:57:40.768Z,99991.47
2023-03-08T23:00:42.776Z,99984.84
2023-03-08T23:03:46.265Z,99983.47
2023-03-08T23:06:48.403Z,99970.91
2023-03-08T23:09:50.508Z,99985.94
2023-03-08T23:12:52.663Z,99983.03
2023-03-08T23:15:54.597Z,99967.84
2023-03-08T23:18:56.630Z,99960.78
2023-03-08T23:21:58.732Z,99966.91
2023-03-08T23:25:00.742Z,99967.16
2023-03-08T23:28:02.779Z,99956.94
2023-03-08T23:31:16.782Z,99963.41
2023-03-08T23:34:18.784Z,99958.22
2023-03-08T23:37:21.177Z,99953.41
2023-03-08T23:40:23.192Z,99957.38
2023-03-08T23:43:26.164Z,99948.41
2023-03-08T23:46:29.251Z,99943.66
2023-03-08T23:49:31.325Z,99927.91
2023-03-08T23:52:33.398Z,99939.38
2023-03-08T23:55:40.228Z,99932.09
2023-03-08T23:58:42.322Z,99921.06
